메인 페이지
METAR-TAF:

METAR-TAF

공항 :

시러큐스, 뉴욕, 미국

위도: 43-06-33N, 경도: 076-06-12W, 고도: 128m

현재 날씨관측

예보는 34분 전, 20:54시(UTC)에 발표되었습니다.
서북서11kt
온도 -2°C
습도 33%
기압 1030 hPa
시정: 16.1km
맑음

METAR: KSYR 072054Z 30011KT 10SM CLR M02/M16 A3041 RMK AO2 SLP300 T10221161 53002

시각: 16:28 (21:28 UTC)

예보

예보는 4 시간 8분 전, 17:20시(UTC)에 발표되었습니다.
예보 대상 시간: 07일 18시부터 08일 18시까지 (UTC)
서북서8kt
시정: 10km
고도 3000ft 상공 구름 조금
08일 0000시부터 (UTC)
kt
시정: 10km
고도 25000ft 상공 구름 조금
08일 0800시부터 (UTC)
kt
시정: 10km
고도 2000ft 상공 구름 많음
08일 1300시부터 (UTC)
kt
시정: 10km
고도 25000ft 상공 구름 많음

TAF: KSYR 071720Z 0718/0818 29008KT P6SM FEW030 FM080000 00000KT P6SM FEW250 FM080800 00000KT P6SM BKN020 FM081300 00000KT P6SM BKN250

4,000개 이상의 공항 관측 자료 및 예보 (METAR 및 TAF 보고).

지도상에서 검색 가능한 기상관측소가 노란 점과 빨간 점으로 표시되어 있습니다.

기상관측소 명을 보려면 표시 위로 마우스를 이동하세요.

날씨 관측과 예보를 보려면 클릭하세요.

지도 변경 : 확대하려면 엑스 표시가 있는 녹색 버튼, 축소하려면 빼기 표시가 있는 녹색 버튼, 다음 페이지의 지도를 보려면 녹색 화살표를 클릭하세요.


METAR-TAF: